sensor_id;sensor_type;location;lat;lon;timestamp;P1;durP1;ratioP1;P2;durP2;ratioP2
28335;SDS011;15592;53.656;7.276;2023-06-14T00:02:02;3.40;;;2.40;;
28335;SDS011;15592;53.656;7.276;2023-06-14T00:04:28;3.13;;;2.38;;
28335;SDS011;15592;53.656;7.276;2023-06-14T00:06:54;4.18;;;2.53;;
28335;SDS011;15592;53.656;7.276;2023-06-14T00:09:21;4.53;;;2.30;;
28335;SDS011;15592;53.656;7.276;2023-06-14T00:11:47;2.40;;;1.90;;
28335;SDS011;15592;53.656;7.276;2023-06-14T00:14:13;3.03;;;1.73;;
28335;SDS011;15592;53.656;7.276;2023-06-14T00:16:39;3.00;;;2.10;;
28335;SDS011;15592;53.656;7.276;2023-06-14T00:19:07;3.53;;;2.17;;
28335;SDS011;15592;53.656;7.276;2023-06-14T00:21:36;2.20;;;1.70;;
28335;SDS011;15592;53.656;7.276;2023-06-14T00:24:03;2.53;;;2.00;;
28335;SDS011;15592;53.656;7.276;2023-06-14T00:26:29;3.08;;;1.98;;
28335;SDS011;15592;53.656;7.276;2023-06-14T00:28:55;2.00;;;1.80;;
28335;SDS011;15592;53.656;7.276;2023-06-14T00:31:21;2.80;;;1.83;;
28335;SDS011;15592;53.656;7.276;2023-06-14T00:33:50;1.75;;;1.45;;
28335;SDS011;15592;53.656;7.276;2023-06-14T00:36:15;2.20;;;1.70;;
28335;SDS011;15592;53.656;7.276;2023-06-14T00:38:41;1.60;;;1.50;;
28335;SDS011;15592;53.656;7.276;2023-06-14T00:41:07;1.95;;;1.73;;
28335;SDS011;15592;53.656;7.276;2023-06-14T00:43:32;2.20;;;1.50;;
28335;SDS011;15592;53.656;7.276;2023-06-14T00:45:59;1.83;;;1.50;;
28335;SDS011;15592;53.656;7.276;2023-06-14T00:48:25;1.88;;;1.65;;
28335;SDS011;15592;53.656;7.276;2023-06-14T00:50:51;2.55;;;1.73;;
28335;SDS011;15592;53.656;7.276;2023-06-14T00:53:17;1.83;;;1.63;;
28335;SDS011;15592;53.656;7.276;2023-06-14T00:55:45;2.92;;;1.67;;
28335;SDS011;15592;53.656;7.276;2023-06-14T00:58:11;2.47;;;1.70;;
28335;SDS011;15592;53.656;7.276;2023-06-14T01:00:38;3.25;;;1.90;;
28335;SDS011;15592;53.656;7.276;2023-06-14T01:03:04;3.08;;;2.10;;
28335;SDS011;15592;53.656;7.276;2023-06-14T01:05:30;3.17;;;1.85;;
28335;SDS011;15592;53.656;7.276;2023-06-14T01:08:14;3.28;;;2.17;;
28335;SDS011;15592;53.656;7.276;2023-06-14T01:10:52;2.45;;;1.83;;
28335;SDS011;15592;53.656;7.276;2023-06-14T01:13:29;2.80;;;1.77;;
28335;SDS011;15592;53.656;7.276;2023-06-14T01:15:56;2.00;;;1.70;;
28335;SDS011;15592;53.656;7.276;2023-06-14T01:18:22;2.22;;;1.70;;
28335;SDS011;15592;53.656;7.276;2023-06-14T01:20:50;3.40;;;2.05;;
28335;SDS011;15592;53.656;7.276;2023-06-14T01:23:20;3.80;;;1.80;;
28335;SDS011;15592;53.656;7.276;2023-06-14T01:25:47;1.98;;;1.60;;
28335;SDS011;15592;53.656;7.276;2023-06-14T01:28:17;2.38;;;1.88;;
28335;SDS011;15592;53.656;7.276;2023-06-14T01:30:46;2.85;;;1.92;;
28335;SDS011;15592;53.656;7.276;2023-06-14T01:33:15;4.05;;;1.80;;
28335;SDS011;15592;53.656;7.276;2023-06-14T01:35:49;3.45;;;2.20;;
28335;SDS011;15592;53.656;7.276;2023-06-14T01:38:17;2.50;;;2.08;;
28335;SDS011;15592;53.656;7.276;2023-06-14T01:40:45;2.72;;;2.10;;
28335;SDS011;15592;53.656;7.276;2023-06-14T01:43:12;2.95;;;2.15;;
28335;SDS011;15592;53.656;7.276;2023-06-14T01:45:40;3.67;;;2.25;;
28335;SDS011;15592;53.656;7.276;2023-06-14T01:48:07;3.47;;;2.13;;
28335;SDS011;15592;53.656;7.276;2023-06-14T01:50:33;2.60;;;2.13;;
28335;SDS011;15592;53.656;7.276;2023-06-14T01:52:59;2.38;;;2.00;;
28335;SDS011;15592;53.656;7.276;2023-06-14T01:55:25;3.90;;;2.00;;
28335;SDS011;15592;53.656;7.276;2023-06-14T01:57:51;2.85;;;2.10;;
28335;SDS011;15592;53.656;7.276;2023-06-14T02:00:17;3.45;;;2.22;;
28335;SDS011;15592;53.656;7.276;2023-06-14T02:02:43;4.25;;;2.20;;
28335;SDS011;15592;53.656;7.276;2023-06-14T02:05:09;5.45;;;2.63;;
28335;SDS011;15592;53.656;7.276;2023-06-14T02:07:35;3.53;;;2.10;;
28335;SDS011;15592;53.656;7.276;2023-06-14T02:10:02;2.47;;;2.15;;
28335;SDS011;15592;53.656;7.276;2023-06-14T02:12:28;3.72;;;2.40;;
28335;SDS011;15592;53.656;7.276;2023-06-14T02:14:54;3.72;;;2.28;;
28335;SDS011;15592;53.656;7.276;2023-06-14T02:17:21;3.05;;;2.35;;
28335;SDS011;15592;53.656;7.276;2023-06-14T02:19:47;6.82;;;2.78;;
28335;SDS011;15592;53.656;7.276;2023-06-14T02:22:13;3.30;;;2.55;;
28335;SDS011;15592;53.656;7.276;2023-06-14T02:24:40;4.50;;;2.90;;
28335;SDS011;15592;53.656;7.276;2023-06-14T02:27:06;5.10;;;2.65;;
28335;SDS011;15592;53.656;7.276;2023-06-14T02:29:32;4.15;;;3.25;;
28335;SDS011;15592;53.656;7.276;2023-06-14T02:31:57;3.85;;;3.13;;
28335;SDS011;15592;53.656;7.276;2023-06-14T02:34:23;5.60;;;2.60;;
28335;SDS011;15592;53.656;7.276;2023-06-14T02:36:48;4.70;;;2.70;;
28335;SDS011;15592;53.656;7.276;2023-06-14T02:39:14;3.92;;;2.90;;
28335;SDS011;15592;53.656;7.276;2023-06-14T02:41:40;4.22;;;3.00;;
28335;SDS011;15592;53.656;7.276;2023-06-14T02:44:06;4.00;;;2.67;;
28335;SDS011;15592;53.656;7.276;2023-06-14T02:46:31;3.70;;;2.88;;
28335;SDS011;15592;53.656;7.276;2023-06-14T02:48:57;3.33;;;2.67;;
28335;SDS011;15592;53.656;7.276;2023-06-14T02:51:23;3.45;;;2.58;;
28335;SDS011;15592;53.656;7.276;2023-06-14T02:53:49;3.42;;;2.50;;
28335;SDS011;15592;53.656;7.276;2023-06-14T02:56:14;4.45;;;2.90;;
28335;SDS011;15592;53.656;7.276;2023-06-14T02:58:42;4.78;;;2.78;;
28335;SDS011;15592;53.656;7.276;2023-06-14T03:01:08;5.03;;;2.83;;
28335;SDS011;15592;53.656;7.276;2023-06-14T03:03:37;4.03;;;2.83;;
28335;SDS011;15592;53.656;7.276;2023-06-14T03:06:03;4.95;;;3.17;;
28335;SDS011;15592;53.656;7.276;2023-06-14T03:08:30;3.92;;;2.70;;
28335;SDS011;15592;53.656;7.276;2023-06-14T03:11:03;3.53;;;2.83;;
28335;SDS011;15592;53.656;7.276;2023-06-14T03:13:30;3.80;;;2.92;;
28335;SDS011;15592;53.656;7.276;2023-06-14T03:15:57;3.05;;;2.60;;
28335;SDS011;15592;53.656;7.276;2023-06-14T03:18:23;3.83;;;2.60;;
28335;SDS011;15592;53.656;7.276;2023-06-14T03:20:48;4.10;;;3.20;;
28335;SDS011;15592;53.656;7.276;2023-06-14T03:23:15;3.83;;;2.80;;
28335;SDS011;15592;53.656;7.276;2023-06-14T03:25:41;3.50;;;2.60;;
28335;SDS011;15592;53.656;7.276;2023-06-14T03:28:07;4.35;;;2.88;;
28335;SDS011;15592;53.656;7.276;2023-06-14T03:30:33;6.45;;;3.15;;
28335;SDS011;15592;53.656;7.276;2023-06-14T03:32:58;5.70;;;3.53;;
28335;SDS011;15592;53.656;7.276;2023-06-14T03:35:26;4.75;;;2.97;;
28335;SDS011;15592;53.656;7.276;2023-06-14T03:37:52;5.80;;;3.22;;
28335;SDS011;15592;53.656;7.276;2023-06-14T03:40:18;4.60;;;3.20;;
28335;SDS011;15592;53.656;7.276;2023-06-14T03:42:45;5.50;;;3.25;;
28335;SDS011;15592;53.656;7.276;2023-06-14T03:45:11;5.35;;;3.10;;
28335;SDS011;15592;53.656;7.276;2023-06-14T03:47:36;4.25;;;2.90;;
28335;SDS011;15592;53.656;7.276;2023-06-14T03:50:02;4.13;;;3.00;;
28335;SDS011;15592;53.656;7.276;2023-06-14T03:52:29;3.75;;;2.75;;
28335;SDS011;15592;53.656;7.276;2023-06-14T03:54:54;3.85;;;3.05;;
28335;SDS011;15592;53.656;7.276;2023-06-14T03:57:20;4.80;;;3.35;;
28335;SDS011;15592;53.656;7.276;2023-06-14T03:59:46;6.18;;;3.70;;
28335;SDS011;15592;53.656;7.276;2023-06-14T04:02:12;4.88;;;3.15;;
28335;SDS011;15592;53.656;7.276;2023-06-14T04:04:41;4.53;;;3.17;;
28335;SDS011;15592;53.656;7.276;2023-06-14T04:07:09;5.53;;;3.20;;
28335;SDS011;15592;53.656;7.276;2023-06-14T04:09:36;4.72;;;3.58;;
28335;SDS011;15592;53.656;7.276;2023-06-14T04:12:02;5.43;;;3.20;;
28335;SDS011;15592;53.656;7.276;2023-06-14T04:14:28;4.18;;;3.42;;
28335;SDS011;15592;53.656;7.276;2023-06-14T04:16:54;4.78;;;3.47;;
28335;SDS011;15592;53.656;7.276;2023-06-14T04:19:19;5.00;;;3.10;;
28335;SDS011;15592;53.656;7.276;2023-06-14T04:21:45;3.88;;;3.17;;
28335;SDS011;15592;53.656;7.276;2023-06-14T04:24:10;5.65;;;2.80;;
28335;SDS011;15592;53.656;7.276;2023-06-14T04:26:39;5.15;;;3.55;;
28335;SDS011;15592;53.656;7.276;2023-06-14T04:29:05;4.80;;;3.25;;
28335;SDS011;15592;53.656;7.276;2023-06-14T04:31:31;5.72;;;3.67;;
28335;SDS011;15592;53.656;7.276;2023-06-14T04:33:58;4.68;;;3.50;;
28335;SDS011;15592;53.656;7.276;2023-06-14T04:36:25;5.07;;;3.10;;
28335;SDS011;15592;53.656;7.276;2023-06-14T04:38:53;6.00;;;3.67;;
28335;SDS011;15592;53.656;7.276;2023-06-14T04:41:21;6.68;;;3.50;;
28335;SDS011;15592;53.656;7.276;2023-06-14T04:43:48;8.68;;;3.80;;
28335;SDS011;15592;53.656;7.276;2023-06-14T04:46:14;3.53;;;3.22;;
28335;SDS011;15592;53.656;7.276;2023-06-14T04:48:40;5.47;;;3.22;;
28335;SDS011;15592;53.656;7.276;2023-06-14T04:51:08;4.13;;;3.22;;
28335;SDS011;15592;53.656;7.276;2023-06-14T04:53:34;5.30;;;3.63;;
28335;SDS011;15592;53.656;7.276;2023-06-14T04:56:00;4.35;;;3.20;;
28335;SDS011;15592;53.656;7.276;2023-06-14T04:58:26;5.45;;;3.55;;
28335;SDS011;15592;53.656;7.276;2023-06-14T05:00:53;4.75;;;3.45;;
28335;SDS011;15592;53.656;7.276;2023-06-14T05:03:20;5.57;;;3.63;;
28335;SDS011;15592;53.656;7.276;2023-06-14T05:05:47;7.15;;;3.92;;
28335;SDS011;15592;53.656;7.276;2023-06-14T05:08:13;6.28;;;3.60;;
28335;SDS011;15592;53.656;7.276;2023-06-14T05:10:38;5.60;;;3.80;;
28335;SDS011;15592;53.656;7.276;2023-06-14T05:13:04;5.70;;;4.10;;
28335;SDS011;15592;53.656;7.276;2023-06-14T05:15:30;5.80;;;4.30;;
28335;SDS011;15592;53.656;7.276;2023-06-14T05:17:55;7.03;;;4.20;;
28335;SDS011;15592;53.656;7.276;2023-06-14T05:20:21;5.78;;;4.10;;
28335;SDS011;15592;53.656;7.276;2023-06-14T05:22:49;5.15;;;3.83;;
28335;SDS011;15592;53.656;7.276;2023-06-14T05:25:17;5.57;;;3.50;;
28335;SDS011;15592;53.656;7.276;2023-06-14T05:27:43;6.03;;;3.67;;
28335;SDS011;15592;53.656;7.276;2023-06-14T05:30:08;8.88;;;4.07;;
28335;SDS011;15592;53.656;7.276;2023-06-14T05:32:35;6.50;;;3.65;;
28335;SDS011;15592;53.656;7.276;2023-06-14T05:35:00;7.68;;;3.85;;
28335;SDS011;15592;53.656;7.276;2023-06-14T05:37:26;5.35;;;3.65;;
28335;SDS011;15592;53.656;7.276;2023-06-14T05:39:55;5.18;;;3.13;;
28335;SDS011;15592;53.656;7.276;2023-06-14T05:42:20;5.03;;;3.50;;
28335;SDS011;15592;53.656;7.276;2023-06-14T05:44:46;4.85;;;3.83;;
28335;SDS011;15592;53.656;7.276;2023-06-14T05:47:11;4.65;;;3.30;;
28335;SDS011;15592;53.656;7.276;2023-06-14T05:49:37;5.22;;;3.13;;
28335;SDS011;15592;53.656;7.276;2023-06-14T05:52:03;4.75;;;3.42;;
28335;SDS011;15592;53.656;7.276;2023-06-14T05:54:28;4.95;;;3.20;;
28335;SDS011;15592;53.656;7.276;2023-06-14T05:56:54;5.47;;;3.40;;
28335;SDS011;15592;53.656;7.276;2023-06-14T05:59:20;5.50;;;3.28;;
28335;SDS011;15592;53.656;7.276;2023-06-14T06:01:45;4.85;;;3.50;;
28335;SDS011;15592;53.656;7.276;2023-06-14T06:04:11;5.03;;;3.30;;
28335;SDS011;15592;53.656;7.276;2023-06-14T06:06:36;5.00;;;3.30;;
28335;SDS011;15592;53.656;7.276;2023-06-14T06:09:02;5.07;;;3.47;;
28335;SDS011;15592;53.656;7.276;2023-06-14T06:11:28;4.90;;;3.55;;
28335;SDS011;15592;53.656;7.276;2023-06-14T06:13:53;6.05;;;3.60;;
28335;SDS011;15592;53.656;7.276;2023-06-14T06:16:19;6.57;;;3.38;;
28335;SDS011;15592;53.656;7.276;2023-06-14T06:18:44;4.82;;;3.13;;
28335;SDS011;15592;53.656;7.276;2023-06-14T06:21:10;5.18;;;3.42;;
28335;SDS011;15592;53.656;7.276;2023-06-14T06:23:36;4.07;;;3.13;;
28335;SDS011;15592;53.656;7.276;2023-06-14T06:26:01;3.53;;;3.08;;
28335;SDS011;15592;53.656;7.276;2023-06-14T06:28:27;5.03;;;3.25;;
28335;SDS011;15592;53.656;7.276;2023-06-14T06:30:53;3.88;;;3.25;;
28335;SDS011;15592;53.656;7.276;2023-06-14T06:33:19;3.88;;;3.20;;
28335;SDS011;15592;53.656;7.276;2023-06-14T06:35:44;3.63;;;2.90;;
28335;SDS011;15592;53.656;7.276;2023-06-14T06:38:10;2.90;;;2.60;;
28335;SDS011;15592;53.656;7.276;2023-06-14T06:40:36;4.55;;;3.10;;
28335;SDS011;15592;53.656;7.276;2023-06-14T06:43:02;4.05;;;3.00;;
28335;SDS011;15592;53.656;7.276;2023-06-14T06:45:28;4.68;;;3.42;;
28335;SDS011;15592;53.656;7.276;2023-06-14T06:47:53;4.38;;;3.03;;
28335;SDS011;15592;53.656;7.276;2023-06-14T06:50:20;3.22;;;2.92;;
28335;SDS011;15592;53.656;7.276;2023-06-14T06:52:48;6.53;;;3.95;;
28335;SDS011;15592;53.656;7.276;2023-06-14T06:55:14;5.20;;;2.90;;
28335;SDS011;15592;53.656;7.276;2023-06-14T06:57:39;6.07;;;3.10;;
28335;SDS011;15592;53.656;7.276;2023-06-14T07:00:06;3.97;;;3.40;;
28335;SDS011;15592;53.656;7.276;2023-06-14T07:02:35;3.65;;;2.72;;
28335;SDS011;15592;53.656;7.276;2023-06-14T07:05:01;3.67;;;2.67;;
28335;SDS011;15592;53.656;7.276;2023-06-14T07:07:27;3.30;;;3.00;;
28335;SDS011;15592;53.656;7.276;2023-06-14T07:09:52;4.43;;;3.30;;
28335;SDS011;15592;53.656;7.276;2023-06-14T07:12:18;3.25;;;2.83;;
28335;SDS011;15592;53.656;7.276;2023-06-14T07:14:44;3.58;;;2.60;;
28335;SDS011;15592;53.656;7.276;2023-06-14T07:17:09;3.20;;;2.72;;
28335;SDS011;15592;53.656;7.276;2023-06-14T07:19:35;3.63;;;3.08;;
28335;SDS011;15592;53.656;7.276;2023-06-14T07:22:00;3.63;;;2.92;;
28335;SDS011;15592;53.656;7.276;2023-06-14T07:24:26;2.72;;;2.50;;
28335;SDS011;15592;53.656;7.276;2023-06-14T07:26:53;4.95;;;2.85;;
28335;SDS011;15592;53.656;7.276;2023-06-14T07:29:19;4.10;;;3.03;;
28335;SDS011;15592;53.656;7.276;2023-06-14T07:31:46;3.80;;;3.00;;
28335;SDS011;15592;53.656;7.276;2023-06-14T07:34:11;3.47;;;2.85;;
28335;SDS011;15592;53.656;7.276;2023-06-14T07:36:37;5.32;;;2.83;;
28335;SDS011;15592;53.656;7.276;2023-06-14T07:39:03;3.67;;;2.92;;
28335;SDS011;15592;53.656;7.276;2023-06-14T07:41:30;4.20;;;2.88;;
28335;SDS011;15592;53.656;7.276;2023-06-14T07:43:56;3.42;;;2.70;;
28335;SDS011;15592;53.656;7.276;2023-06-14T07:46:22;4.22;;;2.95;;
28335;SDS011;15592;53.656;7.276;2023-06-14T07:48:47;3.60;;;3.00;;
28335;SDS011;15592;53.656;7.276;2023-06-14T07:51:13;3.72;;;2.65;;
28335;SDS011;15592;53.656;7.276;2023-06-14T07:53:38;3.75;;;3.05;;
28335;SDS011;15592;53.656;7.276;2023-06-14T07:56:05;3.63;;;2.90;;
28335;SDS011;15592;53.656;7.276;2023-06-14T07:58:31;3.83;;;2.95;;
28335;SDS011;15592;53.656;7.276;2023-06-14T08:00:57;3.55;;;2.58;;
28335;SDS011;15592;53.656;7.276;2023-06-14T08:03:22;3.10;;;2.80;;
28335;SDS011;15592;53.656;7.276;2023-06-14T08:05:48;4.20;;;2.83;;
28335;SDS011;15592;53.656;7.276;2023-06-14T08:08:14;2.55;;;2.33;;
28335;SDS011;15592;53.656;7.276;2023-06-14T08:10:40;5.93;;;3.00;;
28335;SDS011;15592;53.656;7.276;2023-06-14T08:13:06;4.28;;;2.63;;
28335;SDS011;15592;53.656;7.276;2023-06-14T08:15:31;2.67;;;2.42;;
28335;SDS011;15592;53.656;7.276;2023-06-14T08:17:57;5.80;;;2.40;;
28335;SDS011;15592;53.656;7.276;2023-06-14T08:20:25;2.95;;;2.53;;
28335;SDS011;15592;53.656;7.276;2023-06-14T08:22:50;3.75;;;2.38;;
28335;SDS011;15592;53.656;7.276;2023-06-14T08:25:20;4.57;;;2.67;;
28335;SDS011;15592;53.656;7.276;2023-06-14T08:27:45;4.32;;;2.45;;
28335;SDS011;15592;53.656;7.276;2023-06-14T08:30:11;4.38;;;2.65;;
28335;SDS011;15592;53.656;7.276;2023-06-14T08:32:37;3.53;;;2.63;;
28335;SDS011;15592;53.656;7.276;2023-06-14T08:35:03;2.80;;;2.45;;
28335;SDS011;15592;53.656;7.276;2023-06-14T08:37:30;3.90;;;2.78;;
28335;SDS011;15592;53.656;7.276;2023-06-14T08:39:56;4.55;;;2.72;;
28335;SDS011;15592;53.656;7.276;2023-06-14T08:42:21;4.25;;;2.70;;
28335;SDS011;15592;53.656;7.276;2023-06-14T08:44:49;5.03;;;2.92;;
28335;SDS011;15592;53.656;7.276;2023-06-14T08:47:15;4.80;;;3.53;;
28335;SDS011;15592;53.656;7.276;2023-06-14T08:49:44;5.25;;;3.10;;
28335;SDS011;15592;53.656;7.276;2023-06-14T08:52:12;5.57;;;3.22;;
28335;SDS011;15592;53.656;7.276;2023-06-14T08:54:43;2.97;;;2.65;;
28335;SDS011;15592;53.656;7.276;2023-06-14T08:57:11;3.13;;;2.60;;
28335;SDS011;15592;53.656;7.276;2023-06-14T08:59:41;4.30;;;3.38;;
28335;SDS011;15592;53.656;7.276;2023-06-14T09:02:17;3.97;;;2.80;;
28335;SDS011;15592;53.656;7.276;2023-06-14T09:04:47;4.80;;;3.00;;
28335;SDS011;15592;53.656;7.276;2023-06-14T09:07:14;3.85;;;2.60;;
28335;SDS011;15592;53.656;7.276;2023-06-14T09:09:40;3.97;;;2.85;;
28335;SDS011;15592;53.656;7.276;2023-06-14T09:12:10;3.72;;;2.92;;
28335;SDS011;15592;53.656;7.276;2023-06-14T09:14:37;4.32;;;2.78;;
28335;SDS011;15592;53.656;7.276;2023-06-14T09:17:05;4.00;;;2.75;;
28335;SDS011;15592;53.656;7.276;2023-06-14T09:19:31;5.07;;;3.35;;
28335;SDS011;15592;53.656;7.276;2023-06-14T09:21:56;3.85;;;2.85;;
28335;SDS011;15592;53.656;7.276;2023-06-14T09:24:24;4.80;;;2.75;;
28335;SDS011;15592;53.656;7.276;2023-06-14T09:26:51;3.55;;;3.10;;
28335;SDS011;15592;53.656;7.276;2023-06-14T09:29:17;4.43;;;3.10;;
28335;SDS011;15592;53.656;7.276;2023-06-14T09:31:43;3.42;;;2.90;;
28335;SDS011;15592;53.656;7.276;2023-06-14T09:34:11;4.28;;;3.00;;
28335;SDS011;15592;53.656;7.276;2023-06-14T09:36:37;4.75;;;2.78;;
28335;SDS011;15592;53.656;7.276;2023-06-14T09:39:04;4.95;;;3.10;;
28335;SDS011;15592;53.656;7.276;2023-06-14T09:41:31;3.95;;;2.90;;
28335;SDS011;15592;53.656;7.276;2023-06-14T09:44:02;4.90;;;2.78;;
28335;SDS011;15592;53.656;7.276;2023-06-14T09:46:29;3.63;;;2.90;;
28335;SDS011;15592;53.656;7.276;2023-06-14T09:48:56;5.35;;;3.00;;
28335;SDS011;15592;53.656;7.276;2023-06-14T09:51:23;5.97;;;3.33;;
28335;SDS011;15592;53.656;7.276;2023-06-14T09:53:49;6.45;;;3.20;;
28335;SDS011;15592;53.656;7.276;2023-06-14T09:56:20;3.42;;;2.60;;
28335;SDS011;15592;53.656;7.276;2023-06-14T09:58:48;4.82;;;3.17;;
28335;SDS011;15592;53.656;7.276;2023-06-14T10:01:18;4.18;;;2.70;;
28335;SDS011;15592;53.656;7.276;2023-06-14T10:03:45;4.10;;;2.88;;
28335;SDS011;15592;53.656;7.276;2023-06-14T10:06:11;3.88;;;2.63;;
28335;SDS011;15592;53.656;7.276;2023-06-14T10:08:37;3.67;;;2.60;;
28335;SDS011;15592;53.656;7.276;2023-06-14T10:11:04;4.43;;;2.25;;
28335;SDS011;15592;53.656;7.276;2023-06-14T10:13:31;4.07;;;2.88;;
28335;SDS011;15592;53.656;7.276;2023-06-14T10:16:12;3.55;;;2.45;;
28335;SDS011;15592;53.656;7.276;2023-06-14T10:21:28;4.38;;;2.40;;
28335;SDS011;15592;53.656;7.276;2023-06-14T10:24:08;4.18;;;2.63;;
28335;SDS011;15592;53.656;7.276;2023-06-14T10:26:49;3.83;;;2.50;;
28335;SDS011;15592;53.656;7.276;2023-06-14T10:29:19;3.92;;;2.80;;
28335;SDS011;15592;53.656;7.276;2023-06-14T10:31:46;6.03;;;2.60;;
28335;SDS011;15592;53.656;7.276;2023-06-14T10:34:20;3.70;;;2.65;;
28335;SDS011;15592;53.656;7.276;2023-06-14T10:37:06;4.30;;;3.08;;
28335;SDS011;15592;53.656;7.276;2023-06-14T10:39:40;6.93;;;3.53;;
28335;SDS011;15592;53.656;7.276;2023-06-14T10:42:07;4.45;;;3.15;;
28335;SDS011;15592;53.656;7.276;2023-06-14T10:44:33;5.30;;;3.55;;
28335;SDS011;15592;53.656;7.276;2023-06-14T10:49:51;8.20;;;3.70;;
28335;SDS011;15592;53.656;7.276;2023-06-14T10:52:23;8.65;;;3.33;;
28335;SDS011;15592;53.656;7.276;2023-06-14T10:55:04;6.63;;;4.35;;
28335;SDS011;15592;53.656;7.276;2023-06-14T10:57:44;8.38;;;4.00;;
28335;SDS011;15592;53.656;7.276;2023-06-14T11:00:11;5.93;;;3.40;;
28335;SDS011;15592;53.656;7.276;2023-06-14T11:05:25;4.50;;;3.30;;
28335;SDS011;15592;53.656;7.276;2023-06-14T11:08:07;5.22;;;3.70;;
28335;SDS011;15592;53.656;7.276;2023-06-14T11:10:58;5.82;;;3.70;;
28335;SDS011;15592;53.656;7.276;2023-06-14T11:13:27;5.65;;;3.75;;
28335;SDS011;15592;53.656;7.276;2023-06-14T11:15:53;7.57;;;4.10;;
28335;SDS011;15592;53.656;7.276;2023-06-14T11:18:21;6.63;;;3.88;;
28335;SDS011;15592;53.656;7.276;2023-06-14T11:20:52;6.40;;;4.28;;
28335;SDS011;15592;53.656;7.276;2023-06-14T11:23:18;9.20;;;4.72;;
28335;SDS011;15592;53.656;7.276;2023-06-14T11:25:49;8.25;;;4.07;;
28335;SDS011;15592;53.656;7.276;2023-06-14T11:28:17;6.90;;;4.05;;
28335;SDS011;15592;53.656;7.276;2023-06-14T11:30:45;7.97;;;4.60;;
28335;SDS011;15592;53.656;7.276;2023-06-14T11:33:11;5.35;;;3.78;;
28335;SDS011;15592;53.656;7.276;2023-06-14T11:35:42;6.03;;;4.00;;
28335;SDS011;15592;53.656;7.276;2023-06-14T11:38:07;5.82;;;3.70;;
28335;SDS011;15592;53.656;7.276;2023-06-14T11:40:37;6.65;;;3.60;;
28335;SDS011;15592;53.656;7.276;2023-06-14T11:43:03;6.45;;;3.83;;
28335;SDS011;15592;53.656;7.276;2023-06-14T11:45:29;7.40;;;3.88;;
28335;SDS011;15592;53.656;7.276;2023-06-14T11:47:56;8.98;;;3.80;;
28335;SDS011;15592;53.656;7.276;2023-06-14T11:50:23;4.93;;;3.60;;
28335;SDS011;15592;53.656;7.276;2023-06-14T11:52:56;7.88;;;3.70;;
28335;SDS011;15592;53.656;7.276;2023-06-14T11:55:36;4.88;;;3.72;;
28335;SDS011;15592;53.656;7.276;2023-06-14T11:58:03;7.20;;;4.07;;
28335;SDS011;15592;53.656;7.276;2023-06-14T12:00:28;11.45;;;4.13;;
28335;SDS011;15592;53.656;7.276;2023-06-14T12:02:54;6.78;;;3.78;;
28335;SDS011;15592;53.656;7.276;2023-06-14T12:05:21;7.20;;;3.88;;
28335;SDS011;15592;53.656;7.276;2023-06-14T12:07:48;8.35;;;4.50;;
28335;SDS011;15592;53.656;7.276;2023-06-14T12:10:15;8.35;;;4.40;;
28335;SDS011;15592;53.656;7.276;2023-06-14T12:12:42;6.10;;;3.67;;
28335;SDS011;15592;53.656;7.276;2023-06-14T12:15:08;9.13;;;3.90;;
28335;SDS011;15592;53.656;7.276;2023-06-14T12:17:36;5.05;;;3.30;;
28335;SDS011;15592;53.656;7.276;2023-06-14T12:22:56;5.63;;;3.38;;
28335;SDS011;15592;53.656;7.276;2023-06-14T12:25:26;6.10;;;2.95;;
28335;SDS011;15592;53.656;7.276;2023-06-14T12:27:55;7.60;;;3.40;;
28335;SDS011;15592;53.656;7.276;2023-06-14T12:30:21;8.10;;;3.00;;
28335;SDS011;15592;53.656;7.276;2023-06-14T12:32:47;6.22;;;3.50;;
28335;SDS011;15592;53.656;7.276;2023-06-14T12:35:13;3.78;;;3.30;;
28335;SDS011;15592;53.656;7.276;2023-06-14T12:37:40;6.78;;;3.75;;
28335;SDS011;15592;53.656;7.276;2023-06-14T12:40:05;5.82;;;2.92;;
28335;SDS011;15592;53.656;7.276;2023-06-14T12:42:32;6.10;;;2.97;;
28335;SDS011;15592;53.656;7.276;2023-06-14T12:44:58;4.47;;;2.97;;
28335;SDS011;15592;53.656;7.276;2023-06-14T12:47:24;5.10;;;2.95;;
28335;SDS011;15592;53.656;7.276;2023-06-14T12:49:50;4.28;;;2.70;;
28335;SDS011;15592;53.656;7.276;2023-06-14T12:52:16;7.60;;;3.40;;
28335;SDS011;15592;53.656;7.276;2023-06-14T12:54:41;4.05;;;2.92;;
28335;SDS011;15592;53.656;7.276;2023-06-14T12:57:07;2.83;;;2.30;;
28335;SDS011;15592;53.656;7.276;2023-06-14T12:59:33;4.85;;;2.60;;
28335;SDS011;15592;53.656;7.276;2023-06-14T13:02:17;3.95;;;2.88;;
28335;SDS011;15592;53.656;7.276;2023-06-14T13:04:49;4.88;;;2.83;;
28335;SDS011;15592;53.656;7.276;2023-06-14T13:07:15;5.57;;;2.65;;
28335;SDS011;15592;53.656;7.276;2023-06-14T13:09:41;3.22;;;2.70;;
28335;SDS011;15592;53.656;7.276;2023-06-14T13:12:08;3.13;;;2.53;;
28335;SDS011;15592;53.656;7.276;2023-06-14T13:14:36;4.13;;;2.80;;
28335;SDS011;15592;53.656;7.276;2023-06-14T13:17:01;3.58;;;2.60;;
28335;SDS011;15592;53.656;7.276;2023-06-14T13:19:27;5.25;;;2.80;;
28335;SDS011;15592;53.656;7.276;2023-06-14T13:21:53;5.85;;;2.80;;
28335;SDS011;15592;53.656;7.276;2023-06-14T13:24:18;6.68;;;2.92;;
28335;SDS011;15592;53.656;7.276;2023-06-14T13:26:44;4.28;;;3.40;;
28335;SDS011;15592;53.656;7.276;2023-06-14T13:29:09;5.75;;;3.05;;
28335;SDS011;15592;53.656;7.276;2023-06-14T13:31:35;4.88;;;3.28;;
28335;SDS011;15592;53.656;7.276;2023-06-14T13:34:01;4.20;;;2.90;;
28335;SDS011;15592;53.656;7.276;2023-06-14T13:36:26;3.80;;;3.00;;
28335;SDS011;15592;53.656;7.276;2023-06-14T13:38:52;5.97;;;2.95;;
28335;SDS011;15592;53.656;7.276;2023-06-14T13:41:19;8.40;;;3.50;;
28335;SDS011;15592;53.656;7.276;2023-06-14T13:43:45;7.43;;;3.28;;
28335;SDS011;15592;53.656;7.276;2023-06-14T13:46:11;6.03;;;3.08;;
28335;SDS011;15592;53.656;7.276;2023-06-14T13:48:36;5.32;;;2.88;;
28335;SDS011;15592;53.656;7.276;2023-06-14T13:51:02;4.97;;;3.22;;
28335;SDS011;15592;53.656;7.276;2023-06-14T13:53:29;10.52;;;3.22;;
28335;SDS011;15592;53.656;7.276;2023-06-14T13:55:55;7.30;;;3.33;;
28335;SDS011;15592;53.656;7.276;2023-06-14T13:58:20;5.18;;;3.40;;
28335;SDS011;15592;53.656;7.276;2023-06-14T14:00:46;8.35;;;3.55;;
28335;SDS011;15592;53.656;7.276;2023-06-14T14:03:12;5.15;;;3.17;;
28335;SDS011;15592;53.656;7.276;2023-06-14T14:05:37;6.30;;;3.20;;
28335;SDS011;15592;53.656;7.276;2023-06-14T14:08:03;7.32;;;3.13;;
28335;SDS011;15592;53.656;7.276;2023-06-14T14:10:29;4.68;;;2.90;;
28335;SDS011;15592;53.656;7.276;2023-06-14T14:12:54;7.25;;;3.20;;
28335;SDS011;15592;53.656;7.276;2023-06-14T14:15:21;4.72;;;3.00;;
28335;SDS011;15592;53.656;7.276;2023-06-14T14:17:47;6.18;;;3.10;;
28335;SDS011;15592;53.656;7.276;2023-06-14T14:20:12;6.97;;;2.63;;
28335;SDS011;15592;53.656;7.276;2023-06-14T14:22:40;5.30;;;3.03;;
28335;SDS011;15592;53.656;7.276;2023-06-14T14:25:07;8.60;;;3.35;;
28335;SDS011;15592;53.656;7.276;2023-06-14T14:27:33;6.20;;;3.50;;
28335;SDS011;15592;53.656;7.276;2023-06-14T14:29:58;5.03;;;3.05;;
28335;SDS011;15592;53.656;7.276;2023-06-14T14:32:24;6.00;;;3.17;;
28335;SDS011;15592;53.656;7.276;2023-06-14T14:34:50;7.60;;;3.58;;
28335;SDS011;15592;53.656;7.276;2023-06-14T14:37:15;6.68;;;3.17;;
28335;SDS011;15592;53.656;7.276;2023-06-14T14:39:41;6.72;;;3.75;;
28335;SDS011;15592;53.656;7.276;2023-06-14T14:42:09;4.47;;;3.15;;
28335;SDS011;15592;53.656;7.276;2023-06-14T14:44:36;11.82;;;3.40;;
28335;SDS011;15592;53.656;7.276;2023-06-14T14:47:01;4.68;;;3.33;;
28335;SDS011;15592;53.656;7.276;2023-06-14T14:49:27;4.57;;;3.20;;
28335;SDS011;15592;53.656;7.276;2023-06-14T14:51:53;6.63;;;3.50;;
28335;SDS011;15592;53.656;7.276;2023-06-14T14:54:21;5.82;;;3.50;;
28335;SDS011;15592;53.656;7.276;2023-06-14T14:56:46;5.68;;;3.00;;
28335;SDS011;15592;53.656;7.276;2023-06-14T14:59:12;6.65;;;3.00;;